aviador You're here:

KNOZ Decoded Metar

in
Report Time2018-04-26 12:59:00
UTC Time2018-04-26 13:19:49
Flight Rules vfr VFR
Wind300° at 03 kt
W.Rank300° ranks 16
Current wind is below 300° avg. (8.1)
Visibility9999 m
Phenomena:N/A
Clouds:N/A
Expected CloudBase > 9,600 ft AGL from Temp-Dew spread
CeilingNone
Temp24°C
Dew Point00°C (21% RH)
AAT21.0°C
QNH1010 hPa
Raw Report
KNOZ 261259Z AUTO 30003KT 10SM CLR 24/00 A2983 RMK AO2 SLP052
T02390000=

Extra information for KNOZ:More info

Social comments